Gentle Leader — C6WY9 — position and weather

sailwx.info

Track history (hours):
 
Tides and Currents Weather Stations Pressure Air Temp Water Temp Dewpoint Dewpoint Depression Visibility Wind Speed Wind Dir Waves Ship Positions

Gentle Leader

Last reported at 2016-Sep-21 08:30 UTC. Time now 2016-Sep-29 01:41 UTC.
Position N 41°18' W 069°22'.

Length 200 m; draft 8.2 m.

Type: Cargo ship. MMSI: 311003300.

Date/timePositionNaut miles runAvg speedWind from/ knotsBaromVisibWave heightAir tempDewpointWater temp
2016-Sep-21 08:30N 41°18' W 069°22'3010.2
2016-Sep-21 05:33N 41°45' W 069°40'20 9.9
2016-Sep-21 03:33N 42°02' W 069°53'10 9.7
2016-Sep-21 02:33N 42°11' W 069°58'49 4.0
2016-Sep-20 14:22N 42°23' W 071°03'0 0.0
2016-Sep-20 13:28N 42°23' W 071°03'8 2.6
2016-Sep-20 10:33N 42°24' W 070°53'13 6.7
2016-Sep-20 08:33N 42°16' W 070°38'1310.2
2016-Sep-20 07:15N 42°05' W 070°28'8 9.7
2016-Sep-20 06:27N 41°58' W 070°24'1 0.3
2016-Sep-20 02:25N 41°58' W 070°26'48 2.9
2016-Sep-19 09:33N 41°37' W 071°24'67 9.0
2016-Sep-19 02:10N 40°35' W 071°57'111 7.0
2016-Sep-18 10:24N 39°17' W 073°40'71 9.0
2016-Sep-18 02:34N 38°49' W 075°04'1212.2
2016-Sep-18 01:33N 39°00' W 075°09'1313.4
2016-Sep-18 00:33N 39°12' W 075°17'2613.0
2016-Sep-17 22:34N 39°33' W 075°36'9 9.3
2016-Sep-17 21:33N 39°32' W 075°48'8 8.4
2016-Sep-17 20:33N 39°28' W 075°58'1812.9
2016-Sep-17 19:10N 39°16' W 076°14'14 2.5
2016-Sep-17 13:30N 39°15' W 076°32'0 0.0
2016-Sep-17 12:30N 39°15' W 076°32'0 0.0
2016-Sep-17 10:30N 39°15' W 076°32'0 0.0
2016-Sep-17 09:33N 39°15' W 076°32'0 0.0
2016-Sep-17 08:33N 39°15' W 076°32'0 0.0
2016-Sep-17 07:33N 39°15' W 076°32'0 0.0
2016-Sep-17 05:30N 39°15' W 076°32'0 0.0
2016-Sep-17 04:33N 39°15' W 076°32'20 5.0
2016-Sep-17 00:33N 38°56' W 076°24'11516.4
2016-Sep-16 17:33N 37°02' W 076°04'  
Track history (hours):
 
Tides and Currents Weather Stations Pressure Air Temp Water Temp Dewpoint Dewpoint Depression Visibility Wind Speed Wind Dir Waves Ship Positions

Gentle Leader

Last reported at 2016-Sep-21 08:30 UTC. Time now 2016-Sep-29 01:41 UTC.
Position N 41°18' W 069°22'.

Length 200 m; draft 8.2 m.

Type: Cargo ship. MMSI: 311003300.

Date/timePositionNaut miles runAvg speedWind from/ knotsBaromVisibWave heightAir tempDewpointWater temp
2016-Sep-21 08:30N 41°18' W 069°22'3010.2
2016-Sep-21 05:33N 41°45' W 069°40'20 9.9
2016-Sep-21 03:33N 42°02' W 069°53'10 9.7
2016-Sep-21 02:33N 42°11' W 069°58'49 4.0
2016-Sep-20 14:22N 42°23' W 071°03'0 0.0
2016-Sep-20 13:28N 42°23' W 071°03'8 2.6
2016-Sep-20 10:33N 42°24' W 070°53'13 6.7
2016-Sep-20 08:33N 42°16' W 070°38'1310.2
2016-Sep-20 07:15N 42°05' W 070°28'8 9.7
2016-Sep-20 06:27N 41°58' W 070°24'1 0.3
2016-Sep-20 02:25N 41°58' W 070°26'48 2.9
2016-Sep-19 09:33N 41°37' W 071°24'67 9.0
2016-Sep-19 02:10N 40°35' W 071°57'111 7.0
2016-Sep-18 10:24N 39°17' W 073°40'71 9.0
2016-Sep-18 02:34N 38°49' W 075°04'1212.2
2016-Sep-18 01:33N 39°00' W 075°09'1313.4
2016-Sep-18 00:33N 39°12' W 075°17'2613.0
2016-Sep-17 22:34N 39°33' W 075°36'9 9.3
2016-Sep-17 21:33N 39°32' W 075°48'8 8.4
2016-Sep-17 20:33N 39°28' W 075°58'1812.9
2016-Sep-17 19:10N 39°16' W 076°14'14 2.5
2016-Sep-17 13:30N 39°15' W 076°32'0 0.0
2016-Sep-17 12:30N 39°15' W 076°32'0 0.0
2016-Sep-17 10:30N 39°15' W 076°32'0 0.0
2016-Sep-17 09:33N 39°15' W 076°32'0 0.0
2016-Sep-17 08:33N 39°15' W 076°32'0 0.0
2016-Sep-17 07:33N 39°15' W 076°32'0 0.0
2016-Sep-17 05:30N 39°15' W 076°32'0 0.0
2016-Sep-17 04:33N 39°15' W 076°32'20 5.0
2016-Sep-17 00:33N 38°56' W 076°24'11516.4
2016-Sep-16 17:33N 37°02' W 076°04'  

Dump ship's entire track history